Time;durP1;ratioP1;P1;durP2;ratioP2;P2;SDS_P1;SDS_P2;PMS_P1;PMS_P2;Temp;Humidity;BMP_temperature;BMP_pressure;BME280_temperature;BME280_humidity;BME280_pressure;Samples;Min_cycle;Max_cycle;Signal;HPM_P1;HPM_P2
2021/11/13 00:02:05;;;;;;;4.82;1.42;;;19.70;66.00;;;;;;6160097;23;20038;-71
2021/11/13 00:04:30;;;;;;;3.60;1.40;;;19.70;66.00;;;;;;6184446;23;20009;-71
2021/11/13 00:06:56;;;;;;;3.15;1.70;;;19.70;66.00;;;;;;6184762;23;20005;-71
2021/11/13 00:09:21;;;;;;;4.07;1.58;;;19.70;66.00;;;;;;6186787;23;20059;-71
2021/11/13 00:11:47;;;;;;;3.38;1.40;;;19.60;66.00;;;;;;6184768;23;20088;-71
2021/11/13 00:14:17;;;;;;;3.17;1.55;;;19.70;66.10;;;;;;6185719;23;20072;-71
2021/11/13 00:16:43;;;;;;;3.38;1.60;;;19.60;66.10;;;;;;6161260;23;20028;-71
2021/11/13 00:19:09;;;;;;;3.15;1.58;;;19.60;66.10;;;;;;6184577;23;20012;-71
2021/11/13 00:21:34;;;;;;;3.20;1.35;;;19.70;66.10;;;;;;6186386;23;20001;-71
2021/11/13 00:24:00;;;;;;;4.40;1.67;;;19.60;66.00;;;;;;6184188;23;20072;-71
2021/11/13 00:26:26;;;;;;;3.85;1.60;;;19.60;66.10;;;;;;6211857;23;20399;-71
2021/11/13 00:28:51;;;;;;;2.42;1.10;;;19.60;66.10;;;;;;6189338;23;20076;-71
2021/11/13 00:31:17;;;;;;;4.47;1.23;;;19.60;66.10;;;;;;6216419;23;20075;-71
2021/11/13 00:33:43;;;;;;;1.83;1.25;;;19.60;66.10;;;;;;6189520;23;20009;-71
2021/11/13 00:36:08;;;;;;;3.17;1.20;;;19.60;66.10;;;;;;6216079;23;20051;-71
2021/11/13 00:38:34;;;;;;;2.53;1.30;;;19.60;66.10;;;;;;6216350;23;20000;-71
2021/11/13 00:40:59;;;;;;;4.47;1.40;;;19.60;66.20;;;;;;6189555;23;20000;-71
2021/11/13 00:43:27;;;;;;;3.60;1.50;;;19.60;66.20;;;;;;6189318;23;20001;-71
2021/11/13 00:45:52;;;;;;;3.17;1.30;;;19.60;66.20;;;;;;6215983;23;20005;-71
2021/11/13 00:48:18;;;;;;;3.42;1.58;;;19.60;66.20;;;;;;6216027;23;20011;-71
2021/11/13 00:50:44;;;;;;;2.92;1.40;;;19.60;66.20;;;;;;6164642;23;20001;-71
2021/11/13 00:53:09;;;;;;;2.97;1.33;;;19.60;66.20;;;;;;6189381;23;20011;-71
2021/11/13 00:55:35;;;;;;;2.83;1.23;;;19.60;66.40;;;;;;6189559;23;20000;-71
2021/11/13 00:58:01;;;;;;;2.63;1.20;;;19.60;66.40;;;;;;6215692;23;20439;-71
2021/11/13 01:00:26;;;;;;;2.90;1.30;;;19.60;66.30;;;;;;6189399;23;20519;-71
2021/11/13 01:02:52;;;;;;;2.50;1.00;;;19.60;66.40;;;;;;6164402;23;20020;-71
2021/11/13 01:05:18;;;;;;;4.10;1.55;;;19.60;66.40;;;;;;6189315;23;20012;-71
2021/11/13 01:07:44;;;;;;;3.70;1.27;;;19.60;66.40;;;;;;6189367;23;20004;-71
2021/11/13 01:10:10;;;;;;;4.75;1.42;;;19.60;66.40;;;;;;6189296;23;20005;-71
2021/11/13 01:12:36;;;;;;;3.53;1.65;;;19.60;66.40;;;;;;6188899;23;20059;-71
2021/11/13 01:15:03;;;;;;;3.20;1.33;;;19.60;66.50;;;;;;6215482;23;20004;-71
2021/11/13 01:17:29;;;;;;;3.08;1.50;;;19.60;66.50;;;;;;6164472;23;20001;-71
2021/11/13 01:19:54;;;;;;;2.47;1.30;;;19.60;66.40;;;;;;6188941;23;20005;-71
2021/11/13 01:22:20;;;;;;;1.77;0.90;;;19.60;66.50;;;;;;6215648;23;20001;-71
2021/11/13 01:24:47;;;;;;;3.55;0.98;;;19.60;66.50;;;;;;6188840;23;20009;-71
2021/11/13 01:27:14;;;;;;;2.50;1.33;;;19.60;66.50;;;;;;6215237;23;20005;-71
2021/11/13 01:29:40;;;;;;;2.83;1.20;;;19.60;66.50;;;;;;6189424;23;20036;-71
2021/11/13 01:32:06;;;;;;;2.45;1.40;;;19.60;66.50;;;;;;6188792;23;20321;-71
2021/11/13 01:34:31;;;;;;;3.00;1.30;;;19.60;66.50;;;;;;6215921;23;20040;-71
2021/11/13 01:36:57;;;;;;;4.38;1.23;;;19.60;66.50;;;;;;6215361;23;20047;-71
2021/11/13 01:39:23;;;;;;;2.03;0.90;;;19.60;66.50;;;;;;6164469;23;20047;-71
2021/11/13 01:41:49;;;;;;;3.17;1.20;;;19.60;66.50;;;;;;6215361;23;20012;-71
2021/11/13 01:44:14;;;;;;;2.95;1.20;;;19.60;66.50;;;;;;6188707;23;20011;-71
2021/11/13 01:46:40;;;;;;;3.67;1.10;;;19.60;66.60;;;;;;6164105;23;20000;-71
2021/11/13 01:49:06;;;;;;;1.98;1.02;;;19.60;66.60;;;;;;6188780;23;20008;-71
2021/11/13 01:51:33;;;;;;;2.65;0.90;;;19.60;66.50;;;;;;6215347;23;20004;-71
2021/11/13 01:54:07;;;;;;;4.05;1.40;;;19.60;66.60;;;;;;6214778;23;20079;-71
2021/11/13 01:56:38;;;;;;;2.47;0.93;;;19.60;66.60;;;;;;6215442;23;20000;-71
2021/11/13 01:59:04;;;;;;;2.72;1.15;;;19.60;66.60;;;;;;6165563;23;20506;-71
2021/11/13 02:01:30;;;;;;;3.28;1.40;;;19.60;66.70;;;;;;6188780;23;19996;-71
2021/11/13 02:03:57;;;;;;;2.08;0.82;;;19.60;66.70;;;;;;6188981;23;20031;-71
2021/11/13 02:06:23;;;;;;;2.67;1.10;;;19.60;66.70;;;;;;6164440;23;20310;-71
2021/11/13 02:08:49;;;;;;;2.63;1.02;;;19.60;66.70;;;;;;6215042;23;20011;-71
2021/11/13 02:11:16;;;;;;;1.98;1.00;;;19.60;66.70;;;;;;6215062;23;20015;-71
2021/11/13 02:13:42;;;;;;;1.85;0.90;;;19.60;66.70;;;;;;6188721;23;20007;-71
2021/11/13 02:16:08;;;;;;;1.83;0.80;;;19.60;66.70;;;;;;6188579;23;20008;-71
2021/11/13 02:18:35;;;;;;;2.72;1.10;;;19.60;66.70;;;;;;6164007;23;20048;-71
2021/11/13 02:21:01;;;;;;;2.55;1.02;;;19.60;66.80;;;;;;6212733;23;20023;-70
2021/11/13 02:23:27;;;;;;;1.38;0.88;;;19.60;66.70;;;;;;6211927;23;20317;-70
2021/11/13 02:25:53;;;;;;;2.15;1.00;;;19.60;66.80;;;;;;6183517;23;20213;-70
2021/11/13 02:28:20;;;;;;;3.55;1.08;;;19.60;66.80;;;;;;6160723;23;20005;-70
2021/11/13 02:30:46;;;;;;;2.55;1.40;;;19.60;66.80;;;;;;6185828;23;20074;-70
2021/11/13 02:33:12;;;;;;;3.00;1.13;;;19.60;66.80;;;;;;6160927;23;20057;-71
2021/11/13 02:35:39;;;;;;;2.55;0.88;;;19.60;66.80;;;;;;6186332;23;20001;-71
2021/11/13 02:38:13;;;;;;;3.53;1.13;;;19.60;66.80;;;;;;6162981;23;20028;-71
2021/11/13 02:40:39;;;;;;;2.28;0.98;;;19.60;66.80;;;;;;6214568;23;20001;-71
2021/11/13 02:43:05;;;;;;;2.58;0.93;;;19.60;66.80;;;;;;6214260;23;20408;-71
2021/11/13 02:45:31;;;;;;;3.45;0.88;;;19.60;66.80;;;;;;6161581;23;20024;-71
2021/11/13 02:47:56;;;;;;;2.38;1.17;;;19.60;66.80;;;;;;6213535;23;20344;-71
2021/11/13 02:50:22;;;;;;;1.20;0.90;;;19.60;66.80;;;;;;6163135;23;20005;-71
2021/11/13 02:52:53;;;;;;;2.70;1.23;;;19.60;66.80;;;;;;6214034;23;20001;-71
2021/11/13 02:55:19;;;;;;;2.88;1.00;;;19.50;66.90;;;;;;6214277;23;20019;-71
2021/11/13 02:57:45;;;;;;;1.27;0.73;;;19.60;67.00;;;;;;6214430;23;20028;-71
2021/11/13 03:00:12;;;;;;;2.28;1.10;;;19.60;66.90;;;;;;6214202;23;20050;-71
2021/11/13 03:02:38;;;;;;;1.85;0.75;;;19.50;66.90;;;;;;6188192;23;20000;-71
2021/11/13 03:05:05;;;;;;;1.27;0.80;;;19.60;67.00;;;;;;6163215;23;20007;-71
2021/11/13 03:07:31;;;;;;;1.80;0.90;;;19.60;67.00;;;;;;6187728;23;20001;-71
2021/11/13 03:09:56;;;;;;;1.42;0.90;;;19.60;67.00;;;;;;6188126;23;20000;-71
2021/11/13 03:12:22;;;;;;;2.38;0.95;;;19.50;66.90;;;;;;6214207;23;20418;-71
2021/11/13 03:14:48;;;;;;;2.60;1.30;;;19.60;67.00;;;;;;6187796;23;20015;-71
2021/11/13 03:17:13;;;;;;;1.38;0.80;;;19.60;67.00;;;;;;6187821;23;20001;-71
2021/11/13 03:19:39;;;;;;;3.40;1.17;;;19.60;67.00;;;;;;6187612;23;20024;-71
2021/11/13 03:22:05;;;;;;;2.67;0.65;;;19.60;67.00;;;;;;6213985;23;20025;-71
2021/11/13 03:24:30;;;;;;;1.80;0.70;;;19.60;67.10;;;;;;6162930;23;20012;-71
2021/11/13 03:26:58;;;;;;;2.85;0.80;;;19.60;67.10;;;;;;6163146;23;20012;-71
2021/11/13 03:29:27;;;;;;;1.80;0.90;;;19.60;67.10;;;;;;6187722;23;20001;-71
2021/11/13 03:31:55;;;;;;;1.50;0.77;;;19.60;67.10;;;;;;6188243;23;20001;-71
2021/11/13 03:34:20;;;;;;;2.10;0.75;;;19.50;67.10;;;;;;6188061;23;20020;-71
2021/11/13 03:36:46;;;;;;;2.30;0.73;;;19.60;67.10;;;;;;6213897;23;20084;-71
2021/11/13 03:39:11;;;;;;;2.10;0.82;;;19.50;67.10;;;;;;6162780;23;20428;-71
2021/11/13 03:41:37;;;;;;;2.72;0.80;;;19.60;67.10;;;;;;6189394;23;20032;-71
2021/11/13 03:44:03;;;;;;;2.65;1.00;;;19.60;67.20;;;;;;6189591;23;20058;-71
2021/11/13 03:46:29;;;;;;;2.53;1.10;;;19.60;67.10;;;;;;6189500;23;20001;-71
2021/11/13 03:48:54;;;;;;;3.13;1.10;;;19.50;67.10;;;;;;6215836;23;20004;-71
2021/11/13 03:51:20;;;;;;;1.17;0.60;;;19.50;67.10;;;;;;6188998;23;20076;-71
2021/11/13 03:53:47;;;;;;;1.75;0.70;;;19.50;67.10;;;;;;6215865;23;20000;-71
2021/11/13 03:56:13;;;;;;;3.00;0.80;;;19.50;67.20;;;;;;6164722;23;19997;-71
2021/11/13 03:58:38;;;;;;;2.55;0.77;;;19.50;67.20;;;;;;6189291;23;20008;-71
2021/11/13 04:01:04;;;;;;;2.88;0.90;;;19.50;67.20;;;;;;6215826;23;19996;-71
2021/11/13 04:03:29;;;;;;;2.35;0.70;;;19.50;67.20;;;;;;6215674;23;20054;-71
2021/11/13 04:05:55;;;;;;;1.83;0.77;;;19.50;67.20;;;;;;6215570;23;20004;-71
2021/11/13 04:08:21;;;;;;;1.20;0.70;;;19.50;67.20;;;;;;6189268;23;20012;-71
2021/11/13 04:10:46;;;;;;;1.08;0.60;;;19.50;67.20;;;;;;6189346;23;20436;-71
2021/11/13 04:13:12;;;;;;;1.67;0.88;;;19.50;67.20;;;;;;6189200;23;20012;-71
2021/11/13 04:15:38;;;;;;;1.75;0.70;;;19.50;67.20;;;;;;6164398;23;19997;-71
2021/11/13 04:18:03;;;;;;;2.47;0.50;;;19.50;67.20;;;;;;6215708;23;20001;-71
2021/11/13 04:20:29;;;;;;;1.73;0.73;;;19.50;67.20;;;;;;6215082;23;20000;-71
2021/11/13 04:22:55;;;;;;;1.05;0.80;;;19.50;67.30;;;;;;6189130;23;19997;-70
2021/11/13 04:25:20;;;;;;;1.38;0.77;;;19.50;67.30;;;;;;6188871;23;20023;-70
2021/11/13 04:27:47;;;;;;;2.65;0.82;;;19.50;68.30;;;;;;6189290;23;20004;-70
2021/11/13 04:30:13;;;;;;;1.40;0.70;;;19.50;67.30;;;;;;6215515;23;20443;-70
2021/11/13 04:32:41;;;;;;;1.92;0.75;;;19.50;67.30;;;;;;6189111;23;20012;-70
2021/11/13 04:37:54;;;;;;;3.67;0.80;;;19.50;67.30;;;;;;6193185;23;20008;-70
2021/11/13 04:40:21;;;;;;;3.15;0.63;;;19.50;67.40;;;;;;6189251;23;20003;-70
2021/11/13 04:42:47;;;;;;;3.30;1.15;;;19.50;67.40;;;;;;6164655;23;20070;-70
2021/11/13 04:45:13;;;;;;;1.85;0.65;;;19.50;67.40;;;;;;6188932;23;20000;-70
2021/11/13 04:47:39;;;;;;;1.27;0.65;;;19.60;67.40;;;;;;6215260;23;20080;-70
2021/11/13 04:50:05;;;;;;;1.17;0.60;;;19.50;67.40;;;;;;6163703;23;20000;-70
2021/11/13 04:52:31;;;;;;;1.50;0.73;;;19.50;67.40;;;;;;6188547;23;20080;-70
2021/11/13 04:54:57;;;;;;;0.80;0.60;;;19.50;67.40;;;;;;6188879;23;20432;-70
2021/11/13 04:57:22;;;;;;;1.38;0.60;;;19.50;67.40;;;;;;6215211;23;19996;-70
2021/11/13 04:59:48;;;;;;;1.17;0.70;;;19.50;67.40;;;;;;6215408;23;20459;-70
2021/11/13 05:02:13;;;;;;;2.40;0.75;;;19.50;67.40;;;;;;6188594;23;19996;-70
2021/11/13 05:04:39;;;;;;;2.03;0.70;;;19.50;67.40;;;;;;6215135;23;20004;-70
2021/11/13 05:07:05;;;;;;;2.75;0.77;;;19.50;67.50;;;;;;6215161;23;20012;-70
2021/11/13 05:09:30;;;;;;;1.58;0.60;;;19.50;67.40;;;;;;6188365;23;20009;-70
2021/11/13 05:11:56;;;;;;;1.85;0.50;;;19.50;67.50;;;;;;6188811;23;20008;-71
2021/11/13 05:14:22;;;;;;;1.13;0.60;;;19.50;67.50;;;;;;6188436;23;20001;-71
2021/11/13 05:16:47;;;;;;;2.80;0.60;;;19.50;67.50;;;;;;6188624;23;20004;-71
2021/11/13 05:19:13;;;;;;;1.90;0.60;;;19.50;67.50;;;;;;6214710;23;20350;-71
2021/11/13 05:21:39;;;;;;;1.40;0.47;;;19.50;67.50;;;;;;6188382;23;20005;-71
2021/11/13 05:24:04;;;;;;;1.30;0.60;;;19.50;67.50;;;;;;6163909;23;20357;-71
2021/11/13 05:26:30;;;;;;;0.57;0.38;;;19.50;67.50;;;;;;6188161;23;20020;-71
2021/11/13 05:28:56;;;;;;;1.42;0.80;;;19.50;67.50;;;;;;6214948;23;20340;-71
2021/11/13 05:31:21;;;;;;;1.05;0.60;;;19.50;67.60;;;;;;6188523;23;20005;-70
2021/11/13 05:33:47;;;;;;;1.40;0.75;;;19.50;67.60;;;;;;6214699;23;20001;-70
2021/11/13 05:36:12;;;;;;;1.05;0.60;;;19.50;67.60;;;;;;6188534;23;19997;-70
2021/11/13 05:38:38;;;;;;;1.30;0.43;;;19.50;67.60;;;;;;6214801;23;20369;-70
2021/11/13 05:41:04;;;;;;;1.05;0.50;;;19.50;67.60;;;;;;6214819;23;19997;-70
2021/11/13 05:43:29;;;;;;;1.00;0.65;;;19.50;67.60;;;;;;6188252;23;20003;-70
2021/11/13 05:45:55;;;;;;;1.02;0.60;;;19.50;67.60;;;;;;6163654;23;20051;-70
2021/11/13 05:48:21;;;;;;;0.60;0.40;;;19.50;67.70;;;;;;6214603;23;20340;-70
2021/11/13 05:50:47;;;;;;;1.58;0.70;;;19.50;68.60;;;;;;6188174;23;19997;-70
2021/11/13 05:53:12;;;;;;;1.10;0.50;;;19.50;67.60;;;;;;6214811;23;19996;-70
2021/11/13 05:55:38;;;;;;;1.13;0.50;;;19.50;67.60;;;;;;6214551;23;20037;-70
2021/11/13 05:58:04;;;;;;;1.55;0.70;;;19.50;67.60;;;;;;6163624;23;20067;-70
2021/11/13 06:00:30;;;;;;;1.08;0.57;;;19.50;67.70;;;;;;6187959;23;20091;-70
2021/11/13 06:02:56;;;;;;;0.77;0.60;;;19.50;67.70;;;;;;6162917;23;20028;-70
2021/11/13 06:05:21;;;;;;;0.55;0.30;;;19.50;67.70;;;;;;6214608;23;20080;-70
2021/11/13 06:07:47;;;;;;;1.23;0.60;;;19.50;67.70;;;;;;6214545;23;20348;-70
2021/11/13 06:10:14;;;;;;;0.60;0.35;;;19.50;67.70;;;;;;6214590;23;20004;-70
2021/11/13 06:12:40;;;;;;;1.42;0.50;;;19.50;67.70;;;;;;6188014;23;20344;-70
2021/11/13 06:15:06;;;;;;;0.77;0.50;;;19.50;67.70;;;;;;6187629;23;20024;-70
2021/11/13 06:17:32;;;;;;;1.58;0.60;;;19.50;67.70;;;;;;6163181;23;20011;-70
2021/11/13 06:19:58;;;;;;;0.35;0.35;;;19.50;67.70;;;;;;6188300;23;19996;-70
2021/11/13 06:22:24;;;;;;;0.73;0.40;;;19.50;67.70;;;;;;6188089;23;20012;-70
2021/11/13 06:24:50;;;;;;;0.40;0.40;;;19.50;67.70;;;;;;6214322;23;20444;-70
2021/11/13 06:27:16;;;;;;;1.15;0.45;;;19.50;67.70;;;;;;6163618;23;20067;-70
2021/11/13 06:29:42;;;;;;;1.52;0.60;;;19.50;67.70;;;;;;6214044;23;20008;-70
2021/11/13 06:32:08;;;;;;;1.67;0.60;;;19.50;67.80;;;;;;6188481;23;20004;-70
2021/11/13 06:34:34;;;;;;;2.22;0.70;;;19.50;67.70;;;;;;6214367;23;20004;-70
2021/11/13 06:36:59;;;;;;;1.33;0.60;;;19.50;67.70;;;;;;6214521;23;20059;-70
2021/11/13 06:39:25;;;;;;;1.88;0.47;;;19.50;67.80;;;;;;6187931;23;20035;-70
2021/11/13 06:41:51;;;;;;;1.75;0.55;;;19.50;67.80;;;;;;6188142;23;19997;-70
2021/11/13 06:44:16;;;;;;;0.95;0.43;;;19.50;67.90;;;;;;6187680;23;20001;-70
2021/11/13 06:46:42;;;;;;;1.13;0.52;;;19.50;67.80;;;;;;6188086;23;20001;-71
2021/11/13 06:49:07;;;;;;;2.40;0.50;;;19.50;67.90;;;;;;6188196;23;20428;-71
2021/11/13 06:51:33;;;;;;;1.95;0.50;;;19.50;67.90;;;;;;6214320;23;20027;-71
2021/11/13 06:53:59;;;;;;;1.02;0.47;;;19.50;67.90;;;;;;6214415;23;20502;-71
2021/11/13 06:56:25;;;;;;;0.60;0.40;;;19.50;67.90;;;;;;6214517;23;19996;-71
2021/11/13 06:58:51;;;;;;;0.68;0.50;;;19.50;67.90;;;;;;6187569;23;20071;-71
2021/11/13 07:01:17;;;;;;;1.08;0.30;;;19.50;67.90;;;;;;6214611;23;20001;-71
2021/11/13 07:03:42;;;;;;;0.90;0.38;;;19.50;67.90;;;;;;6214238;23;20454;-71
2021/11/13 07:06:08;;;;;;;0.95;0.40;;;19.50;67.90;;;;;;6214395;23;20004;-71
2021/11/13 07:08:34;;;;;;;0.93;0.52;;;19.50;67.90;;;;;;6187843;23;20009;-71
2021/11/13 07:10:59;;;;;;;0.98;0.40;;;19.50;67.90;;;;;;6187917;23;20076;-71
2021/11/13 07:13:25;;;;;;;1.38;0.55;;;19.50;67.90;;;;;;6187474;23;20391;-71
2021/11/13 07:15:51;;;;;;;0.98;0.47;;;19.50;67.90;;;;;;6216275;23;20024;-71
2021/11/13 07:18:16;;;;;;;1.20;0.50;;;19.50;67.90;;;;;;6164894;23;20024;-71
2021/11/13 07:20:42;;;;;;;1.23;0.35;;;19.50;67.90;;;;;;6189724;23;20024;-71
2021/11/13 07:23:08;;;;;;;0.30;0.30;;;19.50;68.00;;;;;;6189665;23;20462;-71
2021/11/13 07:25:34;;;;;;;1.42;0.57;;;19.50;68.00;;;;;;6189351;23;20016;-71
2021/11/13 07:28:01;;;;;;;0.90;0.50;;;19.50;68.00;;;;;;6189330;23;20009;-71
2021/11/13 07:30:34;;;;;;;1.02;0.50;;;19.50;68.00;;;;;;6165534;23;20005;-71
2021/11/13 07:33:01;;;;;;;0.55;0.40;;;19.50;68.00;;;;;;6190674;23;20001;-71
2021/11/13 07:35:26;;;;;;;1.65;0.65;;;19.50;68.00;;;;;;6187645;23;20054;-71
2021/11/13 07:37:52;;;;;;;0.55;0.30;;;19.50;68.10;;;;;;6188310;23;20032;-71
2021/11/13 07:40:17;;;;;;;0.95;0.40;;;19.50;68.10;;;;;;6214993;23;19997;-71
2021/11/13 07:42:43;;;;;;;1.33;0.43;;;19.50;68.10;;;;;;6214281;23;20001;-71
2021/11/13 07:45:09;;;;;;;1.85;0.28;;;19.50;68.00;;;;;;6214982;23;20012;-71
2021/11/13 07:47:37;;;;;;;0.82;0.30;;;19.60;68.10;;;;;;6188205;23;20348;-71
2021/11/13 07:50:03;;;;;;;1.80;0.40;;;19.50;68.00;;;;;;6214841;23;20008;-71
2021/11/13 07:52:29;;;;;;;1.60;0.47;;;19.50;68.00;;;;;;6215207;23;20008;-71
2021/11/13 07:54:55;;;;;;;2.20;0.50;;;19.50;68.00;;;;;;6187932;23;20143;-71
2021/11/13 07:57:20;;;;;;;0.50;0.40;;;19.50;68.00;;;;;;6214466;23;20007;-71
2021/11/13 07:59:46;;;;;;;0.40;0.30;;;19.50;68.00;;;;;;6214620;23;20008;-71
2021/11/13 08:02:11;;;;;;;0.73;0.30;;;19.50;68.00;;;;;;6188289;23;20332;-71
2021/11/13 08:04:37;;;;;;;1.75;0.30;;;19.50;68.00;;;;;;6214507;23;20000;-71
2021/11/13 08:07:03;;;;;;;0.75;0.20;;;19.50;68.00;;;;;;6188201;23;20009;-71
2021/11/13 08:09:28;;;;;;;0.75;0.40;;;19.50;68.00;;;;;;6188391;23;20012;-71
2021/11/13 08:11:54;;;;;;;2.75;0.60;;;19.50;68.00;;;;;;6214202;23;20428;-71
2021/11/13 08:14:20;;;;;;;1.30;0.30;;;19.50;68.00;;;;;;6188142;23;20001;-71
2021/11/13 08:16:45;;;;;;;0.40;0.20;;;19.50;68.00;;;;;;6187898;23;20000;-71
2021/11/13 08:19:11;;;;;;;2.05;0.40;;;19.50;68.00;;;;;;6214571;23;20001;-71
2021/11/13 08:21:37;;;;;;;0.90;0.20;;;19.50;68.00;;;;;;6214479;23;20004;-71
2021/11/13 08:24:03;;;;;;;1.73;0.55;;;19.50;68.00;;;;;;6138498;23;20005;-71
2021/11/13 08:26:28;;;;;;;1.65;0.38;;;19.50;68.00;;;;;;6213747;23;20017;-71
2021/11/13 08:28:54;;;;;;;0.55;0.45;;;19.50;68.10;;;;;;6162739;23;20035;-71
2021/11/13 08:31:19;;;;;;;0.30;0.30;;;19.50;68.00;;;;;;6214582;23;20009;-71
2021/11/13 08:33:45;;;;;;;2.88;0.40;;;19.60;68.10;;;;;;6187823;23;20000;-71
2021/11/13 08:36:11;;;;;;;2.38;0.43;;;19.50;68.00;;;;;;6214717;23;20451;-71
2021/11/13 08:38:36;;;;;;;0.38;0.30;;;19.50;68.00;;;;;;6214464;23;20067;-71
2021/11/13 08:41:02;;;;;;;0.90;0.30;;;19.50;68.00;;;;;;6187276;23;20004;-71
2021/11/13 08:43:28;;;;;;;0.75;0.35;;;19.50;68.10;;;;;;6214364;23;20001;-71
2021/11/13 08:45:54;;;;;;;0.70;0.45;;;19.50;68.00;;;;;;6163087;23;20008;-71
2021/11/13 08:48:19;;;;;;;1.00;0.20;;;19.50;68.10;;;;;;6188304;23;20080;-71
2021/11/13 08:50:45;;;;;;;0.80;0.30;;;19.60;68.20;;;;;;6214471;23;20380;-71
2021/11/13 08:53:11;;;;;;;0.52;0.20;;;19.50;68.10;;;;;;6214715;23;20032;-71
2021/11/13 08:55:38;;;;;;;0.28;0.22;;;19.50;68.10;;;;;;6161591;23;20005;-71
2021/11/13 08:58:04;;;;;;;1.52;0.30;;;19.60;68.20;;;;;;6163568;23;20001;-71
2021/11/13 09:00:35;;;;;;;0.63;0.22;;;19.60;68.30;;;;;;6163190;23;20008;-72
2021/11/13 09:03:03;;;;;;;1.55;0.57;;;19.60;68.30;;;;;;6187463;23;20325;-72
2021/11/13 09:05:28;;;;;;;0.73;0.52;;;19.60;68.40;;;;;;6162853;23;20339;-71
2021/11/13 09:07:54;;;;;;;0.90;0.40;;;19.60;68.40;;;;;;6162533;23;20031;-72
2021/11/13 09:10:20;;;;;;;0.47;0.45;;;19.70;68.40;;;;;;6214014;23;20004;-72
2021/11/13 09:12:46;;;;;;;0.65;0.38;;;19.70;68.50;;;;;;6187716;23;20454;-72
2021/11/13 09:15:16;;;;;;;0.40;0.30;;;19.70;68.40;;;;;;6187818;23;20004;-69
2021/11/13 09:17:41;;;;;;;0.65;0.40;;;19.70;68.40;;;;;;6187545;23;20007;-68
2021/11/13 09:20:07;;;;;;;0.60;0.30;;;19.70;68.30;;;;;;6187229;23;20004;-74
2021/11/13 09:22:34;;;;;;;0.82;0.55;;;19.70;68.20;;;;;;6188883;23;20001;-74
2021/11/13 09:24:59;;;;;;;0.50;0.20;;;19.80;68.30;;;;;;6163192;23;20020;-74
2021/11/13 09:27:25;;;;;;;0.75;0.20;;;19.80;68.30;;;;;;6188896;23;20073;-73
2021/11/13 09:29:51;;;;;;;2.28;0.25;;;19.80;68.40;;;;;;6215061;23;20376;-73
2021/11/13 09:32:17;;;;;;;0.65;0.20;;;19.90;68.40;;;;;;6188904;23;20001;-73
2021/11/13 09:34:42;;;;;;;0.20;0.20;;;19.90;68.30;;;;;;6188696;23;20004;-74
2021/11/13 09:37:08;;;;;;;0.50;0.20;;;19.90;68.20;;;;;;6163428;23;20076;-74
2021/11/13 09:39:34;;;;;;;0.70;0.28;;;19.90;68.20;;;;;;6163309;23;20071;-74
2021/11/13 09:42:00;;;;;;;1.10;0.20;;;19.90;68.20;;;;;;6213635;23;20399;-72
2021/11/13 09:44:26;;;;;;;0.82;0.40;;;19.90;68.20;;;;;;6214404;23;20522;-72
2021/11/13 09:46:52;;;;;;;0.30;0.30;;;20.00;68.20;;;;;;6187833;23;20005;-72
2021/11/13 09:49:18;;;;;;;2.13;0.40;;;20.00;68.20;;;;;;6163253;23;20004;-73
2021/11/13 09:51:44;;;;;;;0.25;0.20;;;20.00;68.10;;;;;;6162966;23;20005;-73
2021/11/13 09:54:10;;;;;;;0.88;0.43;;;20.10;68.20;;;;;;6186867;23;20008;-73
2021/11/13 09:56:36;;;;;;;0.63;0.20;;;20.10;68.20;;;;;;6188214;23;20000;-72
2021/11/13 09:59:03;;;;;;;0.65;0.30;;;20.10;68.00;;;;;;6188049;23;20420;-71
2021/11/13 10:01:29;;;;;;;0.90;0.20;;;20.10;68.00;;;;;;6188170;23;20007;-71
2021/11/13 10:03:54;;;;;;;0.10;0.10;;;20.10;68.00;;;;;;6163235;23;20443;-71
2021/11/13 10:06:20;;;;;;;0.60;0.20;;;20.20;68.00;;;;;;6213517;23;20083;-70
2021/11/13 10:08:46;;;;;;;0.68;0.20;;;20.20;68.00;;;;;;6214091;23;20004;-71
2021/11/13 10:11:16;;;;;;;0.90;0.20;;;20.20;67.90;;;;;;6163015;23;20008;-71
2021/11/13 10:13:43;;;;;;;0.20;0.20;;;20.20;69.10;;;;;;6187761;23;20073;-74
2021/11/13 10:16:21;;;;;;;0.15;0.10;;;20.20;67.90;;;;;;6186590;23;20436;-71
2021/11/13 10:18:52;;;;;;;0.55;0.38;;;20.30;67.80;;;;;;6189187;23;20001;-71
2021/11/13 10:21:25;;;;;;;0.30;0.30;;;20.20;67.80;;;;;;6162086;23;20072;-71
2021/11/13 10:24:11;;;;;;;0.20;0.17;;;20.20;67.70;;;;;;6161966;23;20339;-71
2021/11/13 10:26:41;;;;;;;0.28;0.20;;;20.20;67.70;;;;;;6190756;23;20016;-71
2021/11/13 10:29:23;;;;;;;0.52;0.10;;;20.20;67.70;;;;;;6162743;23;20001;-71
2021/11/13 10:32:00;;;;;;;0.90;0.17;;;20.20;67.50;;;;;;6213147;23;20004;-70
2021/11/13 10:34:32;;;;;;;0.20;0.10;;;20.20;67.50;;;;;;6186598;23;20100;-70
2021/11/13 10:36:59;;;;;;;0.57;0.30;;;20.20;67.60;;;;;;6185923;23;20004;-78
2021/11/13 10:39:27;;;;;;;2.58;0.70;;;20.20;67.60;;;;;;6186841;23;20079;-68
2021/11/13 10:42:01;;;;;;;4.35;0.82;;;20.20;67.40;;;;;;6187619;23;20440;-68
2021/11/13 10:44:29;;;;;;;3.10;0.80;;;20.20;67.10;;;;;;6186919;23;20447;-68
2021/11/13 10:46:56;;;;;;;6.55;1.10;;;20.10;67.10;;;;;;6214365;23;20008;-68
2021/11/13 10:49:22;;;;;;;5.05;0.93;;;20.00;67.10;;;;;;6164069;23;20143;-68
2021/11/13 10:51:56;;;;;;;5.20;1.15;;;20.00;67.10;;;;;;6189896;23;20008;-68
2021/11/13 10:54:22;;;;;;;6.00;1.02;;;20.00;66.90;;;;;;6216106;23;20359;-68
2021/11/13 10:56:53;;;;;;;3.28;0.80;;;20.00;67.80;;;;;;6165385;23;20003;-68
2021/11/13 10:59:39;;;;;;;1.95;0.60;;;19.90;66.70;;;;;;6163944;23;20007;-68
2021/11/13 11:02:13;;;;;;;6.15;1.13;;;19.90;66.60;;;;;;6216447;23;20003;-68
2021/11/13 11:04:40;;;;;;;4.90;1.50;;;19.80;66.60;;;;;;6190404;23;20084;-68
2021/11/13 11:07:23;;;;;;;3.88;1.13;;;19.80;66.70;;;;;;6189380;23;20383;-68
2021/11/13 11:10:03;;;;;;;4.35;0.90;;;19.70;66.50;;;;;;6166620;23;20035;-68
2021/11/13 11:12:31;;;;;;;5.45;0.98;;;19.70;66.60;;;;;;6216234;23;20031;-68
2021/11/13 11:14:56;;;;;;;4.43;0.68;;;19.70;66.60;;;;;;6189898;23;20001;-69
2021/11/13 11:17:29;;;;;;;3.42;0.73;;;19.60;66.50;;;;;;6216207;23;20047;-68
2021/11/13 11:20:01;;;;;;;1.85;0.63;;;19.70;66.50;;;;;;6164995;23;20438;-69
2021/11/13 11:22:29;;;;;;;2.83;0.70;;;19.60;66.50;;;;;;6216106;23;20007;-68
2021/11/13 11:25:09;;;;;;;2.60;0.73;;;19.60;66.40;;;;;;6190114;23;20017;-68
2021/11/13 11:27:48;;;;;;;2.22;0.60;;;19.50;66.10;;;;;;6216092;23;20103;-68
2021/11/13 11:30:23;;;;;;;2.10;0.70;;;19.50;66.20;;;;;;6191127;23;20005;-68
2021/11/13 11:32:55;;;;;;;2.42;1.15;;;19.50;66.30;;;;;;6189619;23;20060;-68
2021/11/13 11:35:25;;;;;;;1.83;0.70;;;19.40;66.20;;;;;;6189329;23;20059;-68
2021/11/13 11:37:51;;;;;;;1.67;0.75;;;19.40;66.20;;;;;;6216213;23;20344;-68
2021/11/13 11:40:19;;;;;;;1.23;0.70;;;19.40;66.20;;;;;;6215906;23;19997;-68
2021/11/13 11:42:45;;;;;;;2.75;0.60;;;19.40;66.20;;;;;;6189538;23;20340;-68
2021/11/13 11:45:12;;;;;;;3.47;0.80;;;19.40;66.20;;;;;;6189666;23;20063;-68
2021/11/13 11:47:39;;;;;;;2.28;0.73;;;19.30;66.00;;;;;;6189783;23;20000;-68
2021/11/13 11:50:07;;;;;;;1.33;0.70;;;19.30;66.00;;;;;;6164738;23;20047;-68
2021/11/13 11:52:33;;;;;;;2.88;0.73;;;19.30;66.00;;;;;;6189713;23;20020;-68
2021/11/13 11:54:59;;;;;;;1.50;0.52;;;19.30;66.10;;;;;;6164794;23;20001;-68
2021/11/13 11:57:30;;;;;;;1.73;0.70;;;19.30;66.10;;;;;;6215846;23;20459;-68
2021/11/13 12:00:00;;;;;;;1.02;0.57;;;19.20;66.00;;;;;;6165033;23;20075;-68
2021/11/13 12:02:35;;;;;;;1.65;0.60;;;19.20;66.00;;;;;;6165037;23;20008;-68
2021/11/13 12:05:14;;;;;;;1.38;0.60;;;19.20;66.00;;;;;;6215519;23;20008;-68
2021/11/13 12:07:41;;;;;;;0.50;0.50;;;19.20;66.00;;;;;;6166526;23;20084;-68
2021/11/13 12:10:09;;;;;;;0.90;0.50;;;19.20;66.00;;;;;;6189546;23;20016;-68
2021/11/13 12:12:59;;;;;;;1.85;0.50;;;19.10;66.00;;;;;;6215660;23;20020;-68
2021/11/13 12:15:25;;;;;;;1.10;0.47;;;19.10;65.90;;;;;;6169191;23;20051;-68
2021/11/13 12:17:52;;;;;;;2.15;0.80;;;19.10;66.00;;;;;;6188929;23;20062;-68
2021/11/13 12:20:36;;;;;;;0.73;0.50;;;19.10;65.90;;;;;;6164220;23;20376;-68
2021/11/13 12:23:04;;;;;;;1.60;0.60;;;19.10;66.00;;;;;;6193089;23;20001;-68
2021/11/13 12:25:35;;;;;;;1.65;0.60;;;19.10;66.00;;;;;;6215253;23;20020;-68
2021/11/13 12:28:15;;;;;;;0.90;0.57;;;19.00;65.80;;;;;;6189063;23;20038;-68
2021/11/13 12:30:54;;;;;;;0.85;0.60;;;19.10;65.70;;;;;;6189219;23;20004;-68
2021/11/13 12:33:26;;;;;;;1.23;0.47;;;19.00;66.80;;;;;;6215073;23;20009;-68
2021/11/13 12:35:59;;;;;;;1.92;0.60;;;19.00;65.80;;;;;;6215519;23;20005;-68
2021/11/13 12:38:31;;;;;;;1.88;0.60;;;18.90;65.70;;;;;;6188826;23;20444;-68
2021/11/13 12:41:09;;;;;;;0.50;0.50;;;18.90;65.70;;;;;;6215460;23;20000;-68
2021/11/13 12:44:26;;;;;;;0.63;0.50;;;18.90;65.70;;;;;;6188850;23;20057;-68
2021/11/13 12:46:54;;;;;;;0.75;0.38;;;18.90;65.50;;;;;;6093937;23;20031;-68
2021/11/13 12:49:24;;;;;;;2.25;0.50;;;18.80;65.80;;;;;;6069997;23;20013;-68
2021/11/13 12:51:56;;;;;;;1.65;0.60;;;18.80;65.80;;;;;;6094368;23;20017;-68